AirNav   TITAN Aviation Fuels
 
 442 users online  

KGDW Gladwin Zettel Memorial Airport
Gladwin, Michigan, USA

GOING TO GLADWIN?


FAA INFORMATION EFFECTIVE 17 JUNE 2021

Location

FAA Identifier: GDW
Lat/Long: 43-58-14.1220N 084-28-30.0710W
43-58.235367N 084-28.501183W
43.9705894,-84.4750197
(estimated)
Elevation: 774.1 ft. / 235.9 m (surveyed)
Variation: 04W (1980)
From city: 1 mile SE of GLADWIN, MI
Time zone: UTC -4 (UTC -5 during Standard Time)
Zip code: 48624

Airport Operations

Airport use: Open to the public
Activation date: 04/1940
Control tower: no
ARTCC: CLEVELAND CENTER
FSS: LANSING FLIGHT SERVICE STATION
NOTAMs facility: LAN (NOTAM-D service available)
Attendance: 0900-1700
UNATNDD MAJOR HOLS. FOR SVC AFT HRS CALL AMGR CELL.
Wind indicator: lighted
Segmented circle: yes
Lights: ACTVT REIL RWY 09 & 27; PAPI RWY 09 & 27; MIRL RWY 09/27 - CTAF.
Beacon: white-green (lighted land airport)
Operates sunset to sunrise.

Airport Communications

CTAF/UNICOM: 122.8
GREAT LAKES APPROACH: 126.45
GREAT LAKES DEPARTURE: 126.45
  • APCH/DEP SVC PRVDD BY CLEVELAND ARTCC (ZOB) ON FREQS 127.7/290.425 (SAGINAW RCAG) WHEN GREAT LAKES APCH CTL CLSD.

Nearby radio navigation aids

VOR radial/distance  VOR name  Freq  Var
MOPr034/23.8MOUNT PLEASANT VOR/DME110.6005W
MBSr330/31.5SAGINAW VOR/DME112.9003W

Airport Services

Fuel available: 100LL JET-A
100LL:FUEL AVBL H24 SELF SVC WITH CREDIT CARD.
Parking: tiedowns

Runway Information

Runway 9/27

Dimensions: 4699 x 75 ft. / 1432 x 23 m
Surface: asphalt, in good condition
Weight bearing capacity: 
Single wheel: 44.0
Double wheel: 60.0
Double tandem: 90.0
Runway edge lights: medium intensity
RUNWAY 9  RUNWAY 27
Latitude: 43-58.304540N43-58.335602N
Longitude: 084-28.971940W084-27.901957W
Elevation: 771.3 ft.772.7 ft.
Traffic pattern: leftleft
Runway heading: 092 magnetic, 088 true272 magnetic, 268 true
Markings: nonprecision, in good conditionnonprecision, in good condition
Visual slope indicator: 2-light PAPI on left (3.00 degrees glide path)2-light PAPI on left (3.00 degrees glide path)
Runway end identifier lights: yesyes
Touchdown point: yes, no lightsyes, no lights
Obstructions: 100 ft. trees, 2200 ft. from runway, 20:1 slope to clear50 ft. brush, 1400 ft. from runway, 24:1 slope to clear

Runway 15/33

Dimensions: 2580 x 150 ft. / 786 x 46 m
Surface: turf, in fair condition
Runway edge markings: 3 FT YELLOW CONES.
Operational restrictions: CLSD WHEN SNOW COVERED EXC FOR SKI EQUIPPED ACFT.
RUNWAY 15  RUNWAY 33
Latitude: 43-58.276013N43-57.886140N
Longitude: 084-28.734625W084-28.501702W
Elevation: 772.7 ft.764.3 ft.
Traffic pattern: leftleft
Runway heading: 161 magnetic, 157 true341 magnetic, 337 true
Touchdown point: yes, no lightsyes, no lights

Airport Ownership and Management from official FAA records

Ownership: Publicly-owned
Owner: CITY/CO OF GLADWIN
1000 W CEDAR AVE
GLADWIN, MI 48624-1814
Phone 989-426-9231
CITY HALL.
Manager: MICHAEL HARGRAVE
735 S STATE ST
GLADWIN, MI 48624-2258
Phone 989-426-4201
CELL 989-578-2174.

Airport Operational Statistics

Aircraft based on the field: 15
Single engine airplanes: 14
Multi engine airplanes: 1
    
Aircraft operations: avg 85/week *
50% transient general aviation
50% local general aviation
* for 12-month period ending 31 December 2016

Additional Remarks

DEER & BIRDS ON & INVOF ARPT.
UAS OPR W OF RWY 15/33.
TRML BLDG ACCESS 5-3-2-1-*.
FOR CD CTC GREAT LAKES APCH AT 269-459-3345, WHEN APCH CLSD CTC CLEVELAND ARTCC AT 440-774-0224/0490.

Instrument Procedures

NOTE: All procedures below are presented as PDF files. If you need a reader for these files, you should download the free Adobe Reader.

NOT FOR NAVIGATION. Please procure official charts for flight.
FAA instrument procedures published for use from 17 June 2021 at 0901Z to 15 July 2021 at 0900Z.

 
IAPs - Instrument Approach Procedures
RNAV (GPS) RWY 09   download (217KB)
RNAV (GPS) RWY 27   download (240KB)
NOTE: Special Take-Off Minimums/Departure Procedures apply   download (122KB)

Other nearby airports with instrument procedures:

48D - Clare Municipal Airport (14 nm SW)
KIKW - Jack Barstow Airport (21 nm SE)
Y31 - West Branch Community Airport (21 nm NE)
KMOP - Mount Pleasant Municipal Airport (24 nm SW)
KHTL - Roscommon County - Blodgett Memorial Airport (25 nm N)
 
Loc | Ops | Rwys | IFR | FBO | Links
Com | Nav | Svcs | Stats | Notes
Area around KGDW (Gladwin Zettel Memorial Airport)
 
Road maps at: MapQuest Bing Google
 
Aerial photo
WARNING: Photo may not be current or correct
Aerial photo of KGDW (Gladwin Zettel Memorial Airport)
Photo by Carol Batten

Do you have a better or more recent aerial photo of Gladwin Zettel Memorial Airport that you would like to share? If so, please send us your photo.

 
Sectional chart

 
Airport distance calculator
Flying to Gladwin Zettel Memorial Airport? Find the distance to fly.

From to KGDW

Sunrise and sunset
Times for 24-Jun-2021
 Local
(UTC-4)
 Zulu
(UTC)
Morning civil twilight05:2109:21
Sunrise05:5709:57
Sunset21:2401:24
Evening civil twilight22:0002:00

Current date and time
Zulu (UTC)  24-Jun-2021 07:35:28
Local (UTC-4)  24-Jun-2021 03:35:28
 
METAR
KIKW 
21nm SE 
240715Z AUTO 15007G17KT 130V200 10SM CLR 18/12 A3006 RMK AO2 T01810115
KY31 
21nm NE 
240715Z AUTO 21004KT 10SM CLR 16/10 A3004 RMK AO2 T01620100
KMOP 
24nm SW 
240715Z AUTO 19007G14KT 10SM BKN095 18/11 A3004 RMK AO2 T01830107
KHTL 
24nm N 
240653Z AUTO 20012G21KT 10SM CLR 18/11 A3002 RMK AO2 SLP163 T01830106
KMBS 
31nm SE 
240653Z AUTO 19012KT 10SM CLR 19/11 A3008 RMK AO2 SLP182 T01890111
KAMN 
40nm S 
240717Z AUTO 17006KT 10SM BKN090 17/12 A3007 RMK AO2 T01650120
TAF
KMBS 
31nm SE 
240541Z 2406/2506 19005KT P6SM SCT100 FM241300 19010KT P6SM SCT100 BKN250 FM241900 20010G18KT P6SM -SHRA SCT050 BKN070 BKN100
NOTAMs
Click for the latest NOTAMs
NOTAMs are issued by the DoD/FAA and will open in a separate window not controlled by AirNav.

 

 
 

FBO, Fuel Providers, and Aircraft Ground Support

  
 Business Name 
 
 Contact 
 
 Services / Description 
 
Fuel Prices
 
Comments
  
Gladwin Zettel Memorial Airport 989-426-4201 Aviation fuel

More info about Gladwin Zettel Memorial Airport
Avfuel
100LL Jet A
AS $4.21 --- 
FS $4.21 $4.50 
 Updated 10-Jun-2021
 
   1 read write
AS=Assisted/Self Service
FS=Full service
Update Fuel Prices
 

Would you like to see your business listed on this page?

 If your business provides an interesting product or service to pilots, flight crews, aircraft, or users of the Gladwin Zettel Memorial Airport, you should consider listing it here.  To start the listing process, click on the button below
 
Add a business
 

Other Pages about Gladwin Zettel Memorial Airport

Page from the Michigan Airport Directory (PDF)
 
Update a link
 
Copyright © AirNav, LLC. All rights reserved. Privacy Policy  Contact